Time;durP1;ratioP1;P1;durP2;ratioP2;P2;SDS_P1;SDS_P2;PMS_P1;PMS_P2;Temp;Humidity;BMP_temperature;BMP_pressure;BME280_temperature;BME280_humidity;BME280_pressure;Samples;Min_cycle;Max_cycle;Signal;HPM_P1;HPM_P2
2023/09/05 06:43:17;;;;;;;12.97;4.37;;;;;;;19.83;66.82;101111.22;6023767;23;20202;-70
2023/09/05 06:57:26;;;;;;;7.23;3.57;;;;;;;20.14;66.84;101101.97;4808085;29;20231;-74
2023/09/05 07:00:25;;;;;;;8.97;3.90;;;;;;;20.21;65.80;101109.06;4783879;29;20228;-70
2023/09/05 07:03:00;;;;;;;13.47;3.60;;;;;;;20.30;67.03;101107.06;4808889;29;20227;-71
2023/09/05 07:05:41;;;;;;;12.53;4.00;;;;;;;20.34;66.50;101107.47;4869152;29;20229;-66
2023/09/05 07:08:26;;;;;;;16.67;4.07;;;;;;;20.36;66.41;101103.59;4872745;29;20337;-72
2023/09/05 07:10:55;;;;;;;7.57;3.50;;;;;;;20.42;66.41;101110.88;4887112;29;20217;-71
2023/09/05 07:13:39;;;;;;;6.90;3.30;;;;;;;20.47;66.35;101104.91;4881706;29;20221;-71
2023/09/05 07:16:14;;;;;;;10.67;3.70;;;;;;;20.49;66.33;101111.75;4886436;29;20218;-70
2023/09/05 07:18:44;;;;;;;8.67;3.70;;;;;;;20.53;67.04;101117.59;4889639;29;20245;-73
2023/09/05 07:24:42;;;;;;;6.93;3.90;;;;;;;20.61;66.03;101109.34;4873860;29;20240;-72
2023/09/05 07:30:16;;;;;;;12.43;3.53;;;;;;;20.79;65.11;101108.84;4881288;29;20214;-72
2023/09/05 07:43:58;;;;;;;8.57;4.17;;;;;;;21.21;64.88;101097.84;4821748;29;20253;-72
2023/09/05 07:54:45;;;;;;;6.80;3.57;;;;;;;21.64;62.79;101111.84;4831802;29;20269;-73
2023/09/05 08:07:58;;;;;;;6.70;2.90;;;;;;;22.41;60.47;101107.75;4794869;29;20246;-71
2023/09/05 08:18:16;;;;;;;6.20;3.28;;;;;;;23.20;56.53;101112.97;4728366;30;20257;-71
2023/09/05 08:20:49;;;;;;;5.88;2.47;;;;;;;23.37;56.48;101113.28;4727043;30;20219;-71
2023/09/05 08:31:03;;;;;;;5.65;2.70;;;;;;;24.09;53.85;101118.25;4799669;29;20207;-70
2023/09/05 08:34:13;;;;;;;3.75;2.38;;;;;;;24.33;52.56;101120.13;4802646;29;20693;-73
2023/09/05 08:40:58;;;;;;;6.00;2.53;;;;;;;24.88;50.72;101111.22;4755690;29;20286;-73
2023/09/05 08:43:40;;;;;;;6.50;2.45;;;;;;;25.26;48.10;101103.66;4784867;29;20221;-73
2023/09/05 08:57:02;;;;;;;5.32;1.83;;;;;;;26.41;46.62;101089.75;4831514;29;20223;-73
2023/09/05 08:59:33;;;;;;;9.30;2.47;;;;;;;26.69;45.52;101086.31;4827376;29;20392;-71
2023/09/05 09:02:02;;;;;;;6.68;2.15;;;;;;;26.99;44.60;101091.59;4833931;29;20290;-73
2023/09/05 09:04:31;;;;;;;9.13;2.45;;;;;;;27.31;44.00;101084.59;4873182;29;20246;-73
2023/09/05 09:10:00;;;;;;;7.57;2.67;;;;;;;28.01;41.76;101078.75;4875451;29;20216;-72
2023/09/05 09:12:40;;;;;;;4.40;1.80;;;;;;;28.30;41.65;101080.34;4876732;29;20245;-72
2023/09/05 09:15:46;;;;;;;7.95;2.42;;;;;;;28.66;41.73;101081.66;4875003;29;20818;-73
2023/09/05 09:19:00;;;;;;;4.05;1.90;;;;;;;28.96;40.53;101074.94;4875524;29;20749;-71
2023/09/05 09:24:31;;;;;;;7.00;2.45;;;;;;;29.55;38.62;101079.44;4871370;29;20221;-72
2023/09/05 09:27:46;;;;;;;4.95;2.00;;;;;;;29.27;37.59;101076.13;4872767;29;20240;-73
2023/09/05 09:30:24;;;;;;;6.18;1.95;;;;;;;28.89;39.25;101085.25;4875080;29;20211;-73
2023/09/05 09:33:46;;;;;;;6.15;2.05;;;;;;;30.37;36.05;101080.09;4875198;29;20202;-72
2023/09/05 09:36:52;;;;;;;7.90;2.00;;;;;;;32.33;31.42;101073.44;4837053;29;20212;-73
2023/09/05 09:39:34;;;;;;;3.58;1.95;;;;;;;31.13;34.11;101073.09;4873720;29;20213;-72
2023/09/05 09:42:04;;;;;;;4.03;1.80;;;;;;;30.24;34.59;101078.66;4873167;29;20226;-72
2023/09/05 09:44:35;;;;;;;3.63;1.80;;;;;;;29.14;36.79;101075.44;4875332;29;20550;-71
2023/09/05 09:47:16;;;;;;;3.15;1.70;;;;;;;28.37;38.02;101078.25;4873750;29;20230;-70
2023/09/05 09:49:48;;;;;;;3.83;1.73;;;;;;;27.96;38.08;101074.06;4874989;29;20229;-72
2023/09/05 09:52:19;;;;;;;3.83;1.85;;;;;;;28.40;38.89;101060.56;4875265;29;20199;-68
2023/09/05 09:54:54;;;;;;;4.63;2.03;;;;;;;29.78;35.62;101058.31;4875284;29;20213;-69
2023/09/05 09:57:30;;;;;;;3.72;1.70;;;;;;;34.82;29.53;101046.91;4875560;29;20240;-73
2023/09/05 10:00:15;;;;;;;4.07;1.92;;;;;;;36.08;26.74;101044.91;4875279;29;20202;-70
2023/09/05 10:02:47;;;;;;;4.72;1.70;;;;;;;34.03;29.88;101042.81;4874965;29;20214;-72
2023/09/05 10:05:16;;;;;;;3.75;1.80;;;;;;;35.20;28.59;101037.50;4874235;29;20213;-71
2023/09/05 10:07:48;;;;;;;6.90;1.70;;;;;;;38.96;24.55;101027.91;4873846;29;20214;-71
2023/09/05 10:10:18;;;;;;;3.35;1.75;;;;;;;39.86;23.06;101016.91;4873624;29;20198;-76
2023/09/05 10:12:47;;;;;;;5.63;1.80;;;;;;;40.31;22.73;101017.22;4872956;29;20202;-74
2023/09/05 10:15:17;;;;;;;3.15;2.03;;;;;;;38.10;24.43;101021.25;4874452;29;20215;-72
2023/09/05 10:17:50;;;;;;;3.30;1.85;;;;;;;35.33;26.56;101033.22;4874004;29;20220;-70
2023/09/05 10:20:35;;;;;;;5.38;2.03;;;;;;;33.00;29.60;101046.56;4875220;29;20222;-72
2023/09/05 10:23:07;;;;;;;3.30;1.85;;;;;;;31.12;31.80;101027.63;4874877;29;20215;-73
2023/09/05 10:25:37;;;;;;;5.25;1.95;;;;;;;29.88;34.24;101031.06;4874263;29;20615;-71
2023/09/05 10:28:10;;;;;;;3.65;2.40;;;;;;;29.09;35.45;101022.69;4874329;29;20214;-71
2023/09/05 10:31:20;;;;;;;6.28;2.25;;;;;;;28.41;37.32;101018.56;4875084;29;20207;-72
2023/09/05 10:34:04;;;;;;;3.90;2.40;;;;;;;27.87;37.61;101018.31;4872222;29;20237;-70
2023/09/05 10:36:46;;;;;;;4.38;1.90;;;;;;;27.56;38.96;101019.72;4874731;29;20886;-72
2023/09/05 10:39:27;;;;;;;2.22;1.55;;;;;;;27.26;40.05;101011.00;4873723;29;20198;-71
2023/09/05 10:42:15;;;;;;;3.78;2.22;;;;;;;27.22;40.51;101012.53;4874720;29;20246;-72
2023/09/05 10:44:59;;;;;;;;;;;;;;;;;;;;;
2023/09/05 10:47:36;;;;;;;5.60;1.70;;;;;;;27.37;40.04;101012.81;4870490;29;20237;-73
2023/09/05 10:50:49;;;;;;;6.72;2.08;;;;;;;27.17;39.79;101002.41;4873892;29;20305;-73
2023/09/05 10:57:04;;;;;;;7.60;2.15;;;;;;;26.58;41.21;100998.22;4869669;29;20621;-72
2023/09/05 10:59:38;;;;;;;4.90;2.25;;;;;;;26.43;41.71;101003.34;4865664;29;20843;-74
2023/09/05 11:02:08;;;;;;;2.88;1.63;;;;;;;26.40;42.83;101001.91;4873822;29;20253;-72
2023/09/05 11:04:39;;;;;;;6.10;1.90;;;;;;;26.47;41.69;100991.75;4874268;29;20221;-68
2023/09/05 11:07:13;;;;;;;4.32;2.03;;;;;;;26.56;42.06;100993.00;4871844;29;20242;-72
2023/09/05 11:09:49;;;;;;;3.00;1.70;;;;;;;26.79;41.32;100994.84;4874105;29;20214;-73
2023/09/05 11:12:19;;;;;;;7.03;2.00;;;;;;;27.39;39.79;100994.34;4873705;29;21162;-75
2023/09/05 11:14:56;;;;;;;3.70;2.03;;;;;;;27.16;40.32;100992.59;4873258;29;20214;-72
2023/09/05 11:17:28;;;;;;;2.92;1.67;;;;;;;27.12;39.66;100993.31;4872384;29;20202;-74
2023/09/05 11:19:58;;;;;;;3.42;1.90;;;;;;;27.45;38.34;100982.44;4872625;29;20927;-69
2023/09/05 11:22:27;;;;;;;4.13;1.38;;;;;;;27.48;37.48;100990.13;4870610;29;20713;-68
2023/09/05 11:24:58;;;;;;;3.05;1.67;;;;;;;27.32;38.05;100983.59;4873462;29;20210;-71
2023/09/05 11:27:29;;;;;;;3.95;1.85;;;;;;;27.29;39.06;100992.25;4873266;29;20603;-72
2023/09/05 11:30:00;;;;;;;2.55;1.50;;;;;;;28.16;37.20;100988.19;4873545;29;20206;-68
2023/09/05 11:32:35;;;;;;;3.13;1.55;;;;;;;29.86;34.69;100979.38;4871586;29;20282;-71
2023/09/05 11:35:04;;;;;;;3.75;1.55;;;;;;;30.56;33.06;100969.13;4872557;29;20285;-71
2023/09/05 11:37:36;;;;;;;2.78;1.52;;;;;;;30.67;33.23;100970.81;4871674;29;20206;-73
2023/09/05 11:40:11;;;;;;;3.55;1.75;;;;;;;30.97;33.13;100976.34;4870563;29;20499;-68
2023/09/05 11:42:39;;;;;;;4.45;1.50;;;;;;;31.11;32.36;100964.91;4868269;29;20233;-68
2023/09/05 11:45:17;;;;;;;3.03;1.50;;;;;;;31.97;31.38;100973.09;4872468;29;20220;-69
2023/09/05 11:47:46;;;;;;;2.63;1.50;;;;;;;32.16;30.59;100960.44;4872147;29;20234;-69
2023/09/05 11:50:17;;;;;;;4.88;1.85;;;;;;;32.23;30.42;100966.47;4872379;29;20213;-70
2023/09/05 11:52:51;;;;;;;7.75;1.50;;;;;;;33.12;29.95;100962.69;4872885;29;20230;-70
2023/09/05 11:55:21;;;;;;;2.97;1.77;;;;;;;34.93;27.89;100951.94;4872779;29;21389;-69
2023/09/05 11:57:50;;;;;;;8.50;1.70;;;;;;;36.61;26.18;100947.72;4872267;29;20234;-68
2023/09/05 12:00:19;;;;;;;4.38;1.65;;;;;;;38.65;24.14;100941.28;4873356;29;20755;-72
2023/09/05 12:02:47;;;;;;;1.83;1.30;;;;;;;39.81;21.82;100937.38;4872223;29;20210;-73
2023/09/05 12:05:19;;;;;;;5.18;1.63;;;;;;;39.49;22.47;100936.00;4872495;29;20213;-69
2023/09/05 12:07:51;;;;;;;3.85;1.50;;;;;;;37.46;24.40;100935.78;4871198;29;20218;-72
2023/09/05 12:10:19;;;;;;;4.72;1.80;;;;;;;35.34;26.32;100941.94;4871234;29;20210;-71
2023/09/05 12:12:54;;;;;;;11.68;1.80;;;;;;;34.16;27.86;100932.03;4871745;29;20665;-72
2023/09/05 12:15:29;;;;;;;3.28;1.50;;;;;;;33.18;29.25;100928.56;4871788;29;20213;-72
2023/09/05 12:17:59;;;;;;;4.82;1.77;;;;;;;32.22;30.23;100931.88;4871688;29;20439;-69
2023/09/05 12:20:34;;;;;;;2.50;1.30;;;;;;;31.24;31.72;100923.25;4873317;29;20212;-71
2023/09/05 12:23:05;;;;;;;2.40;1.40;;;;;;;30.44;33.57;100927.44;4871307;29;20217;-72
2023/09/05 12:25:48;;;;;;;2.70;1.80;;;;;;;29.93;35.31;100921.72;4872972;29;20206;-71
2023/09/05 12:28:27;;;;;;;4.95;2.08;;;;;;;30.12;34.92;100917.50;4875527;29;20377;-72
2023/09/05 12:31:06;;;;;;;4.60;2.05;;;;;;;31.67;32.00;100916.38;4876381;29;20245;-73
2023/09/05 12:33:34;;;;;;;4.35;1.67;;;;;;;31.37;32.39;100917.25;4877715;29;20217;-71
2023/09/05 12:36:03;;;;;;;7.38;2.15;;;;;;;30.87;32.85;100910.59;4875379;29;20218;-64
2023/09/05 12:38:32;;;;;;;4.30;1.70;;;;;;;30.45;33.67;100902.56;4875914;29;20687;-73
2023/09/05 12:41:01;;;;;;;6.32;2.00;;;;;;;30.26;33.79;100899.47;4875854;29;20209;-70
2023/09/05 12:43:29;;;;;;;11.77;2.17;;;;;;;30.85;33.90;100896.38;4873651;29;20215;-73
2023/09/05 12:45:57;;;;;;;4.47;2.00;;;;;;;30.68;33.93;100893.06;4875638;29;20230;-70
2023/09/05 12:48:25;;;;;;;2.17;1.55;;;;;;;30.22;34.75;100887.44;4875476;29;20233;-70
2023/09/05 12:50:55;;;;;;;2.88;1.88;;;;;;;29.71;35.40;100891.81;4874721;29;20308;-71
2023/09/05 12:53:23;;;;;;;4.47;1.70;;;;;;;29.31;35.73;100880.59;4876552;29;20222;-71
2023/09/05 12:56:10;;;;;;;4.30;1.60;;;;;;;28.94;36.36;100878.66;4872994;29;20306;-70
2023/09/05 12:58:39;;;;;;;9.68;2.08;;;;;;;28.56;38.14;100878.81;4874650;29;20214;-73
2023/09/05 13:01:06;;;;;;;3.90;1.45;;;;;;;28.45;37.98;100877.88;4874386;29;20290;-74
2023/09/05 13:03:35;;;;;;;5.43;1.98;;;;;;;28.22;38.89;100878.16;4874698;29;20673;-73
2023/09/05 13:06:04;;;;;;;3.53;1.60;;;;;;;28.14;39.03;100862.22;4874543;29;20781;-71
2023/09/05 13:08:35;;;;;;;3.58;1.55;;;;;;;27.99;39.76;100866.41;4875433;29;20241;-75
2023/09/05 13:11:04;;;;;;;4.55;1.90;;;;;;;27.87;40.44;100867.59;4874606;29;20221;-75
2023/09/05 13:13:32;;;;;;;4.75;2.30;;;;;;;27.82;40.84;100862.91;4875717;29;20212;-70
2023/09/05 13:16:01;;;;;;;2.70;1.65;;;;;;;27.83;40.73;100863.72;4875264;29;20216;-72
2023/09/05 13:18:49;;;;;;;4.20;2.22;;;;;;;27.76;40.75;100852.19;4874851;29;20213;-74
2023/09/05 13:21:21;;;;;;;5.85;2.20;;;;;;;27.64;40.93;100849.56;4875845;29;20315;-71
2023/09/05 13:23:49;;;;;;;6.20;1.80;;;;;;;27.67;41.82;100854.53;4874934;29;20214;-71
2023/09/05 13:26:19;;;;;;;3.50;1.70;;;;;;;27.70;41.03;100845.88;4874768;29;20241;-72
2023/09/05 13:28:46;;;;;;;3.33;1.70;;;;;;;27.65;40.48;100851.22;4874802;29;20237;-69
2023/09/05 13:31:15;;;;;;;4.80;1.85;;;;;;;27.67;41.10;100854.53;4875516;29;20218;-69
2023/09/05 13:33:43;;;;;;;4.78;2.55;;;;;;;27.59;41.60;100853.06;4875891;29;20216;-69
2023/09/05 13:36:11;;;;;;;6.35;2.92;;;;;;;27.54;42.26;100849.44;4873976;29;20225;-71
2023/09/05 13:38:39;;;;;;;2.58;1.52;;;;;;;27.59;41.50;100846.78;4873781;29;20218;-70
2023/09/05 13:41:08;;;;;;;3.78;1.73;;;;;;;27.64;40.85;100844.13;4877717;29;20681;-72
2023/09/05 13:43:38;;;;;;;3.97;1.85;;;;;;;27.71;40.24;100839.31;4876250;29;20221;-74
2023/09/05 13:46:06;;;;;;;5.18;1.67;;;;;;;27.65;41.12;100846.59;4875350;29;20672;-72
2023/09/05 13:48:36;;;;;;;6.70;3.10;;;;;;;27.55;41.21;100845.63;4874174;29;20313;-72
2023/09/05 13:51:04;;;;;;;4.20;2.10;;;;;;;27.54;42.25;100841.25;4875108;29;20209;-70
2023/09/05 13:53:32;;;;;;;5.95;1.52;;;;;;;27.58;41.43;100839.69;4874730;29;20205;-72
2023/09/05 13:55:59;;;;;;;2.13;1.38;;;;;;;27.57;40.74;100843.50;4875981;29;20278;-71
2023/09/05 13:58:27;;;;;;;3.72;1.90;;;;;;;27.54;41.26;100833.91;4873509;29;20226;-70
2023/09/05 14:00:58;;;;;;;2.35;1.63;;;;;;;27.58;41.27;100828.78;4875839;29;20285;-72
2023/09/05 14:03:25;;;;;;;3.38;1.90;;;;;;;27.59;41.46;100828.56;4876236;29;20295;-65
2023/09/05 15:18:06;;;;;;;2.63;1.30;;;;;;;27.59;37.83;100755.00;4867412;29;20224;-69
2023/09/05 15:24:51;;;;;;;3.70;1.63;;;;;;;27.83;37.36;100754.72;4870411;29;20270;-69
2023/09/05 15:27:55;;;;;;;;;;;;;;;;;;;;;
2023/09/05 15:39:05;;;;;;;2.88;1.38;;;;;;;27.64;37.85;100746.06;4797121;29;20207;-72
